Time;durP1;ratioP1;P1;durP2;ratioP2;P2;SDS_P1;SDS_P2;PMS_P1;PMS_P2;Temp;Humidity;BMP_temperature;BMP_pressure;BME280_temperature;BME280_humidity;BME280_pressure;Samples;Min_cycle;Max_cycle;Signal;HPM_P1;HPM_P2
2022/03/24 00:02:06;;;;;;;29.70;16.17;;;8.10;99.90;;;;;;5054863;28;20957;-83
2022/03/24 00:04:32;;;;;;;31.27;16.17;;;8.00;99.90;;;;;;5054886;28;20700;-83
2022/03/24 00:06:57;;;;;;;30.97;16.00;;;8.10;99.90;;;;;;5071930;28;20456;-83
2022/03/24 00:09:23;;;;;;;31.90;16.67;;;8.10;99.90;;;;;;5054591;28;20420;-82
2022/03/24 00:11:49;;;;;;;26.90;14.03;;;8.10;99.90;;;;;;5054354;28;20199;-83
2022/03/24 00:14:16;;;;;;;24.97;14.73;;;8.10;99.90;;;;;;5054505;28;20227;-82
2022/03/24 00:16:43;;;;;;;28.60;16.20;;;8.10;99.90;;;;;;5056042;28;20596;-82
2022/03/24 00:19:09;;;;;;;27.30;14.97;;;8.10;99.90;;;;;;5054659;28;20414;-84
2022/03/24 00:21:35;;;;;;;27.17;16.30;;;8.10;99.90;;;;;;5054222;28;20445;-83
2022/03/24 00:24:01;;;;;;;28.30;15.27;;;8.10;99.90;;;;;;5054251;28;20779;-83
2022/03/24 00:26:27;;;;;;;28.60;16.30;;;8.00;99.90;;;;;;5054027;28;20202;-84
2022/03/24 00:28:52;;;;;;;29.90;16.43;;;8.00;99.90;;;;;;5054623;28;20693;-84
2022/03/24 00:31:18;;;;;;;25.80;17.03;;;8.00;99.90;;;;;;5054409;28;20195;-84
2022/03/24 00:33:44;;;;;;;24.33;15.40;;;7.90;99.90;;;;;;5054298;28;20206;-83
2022/03/24 00:36:11;;;;;;;28.60;16.37;;;7.90;99.90;;;;;;5054439;28;20270;-84
2022/03/24 00:38:40;;;;;;;31.00;16.07;;;7.90;99.90;;;;;;5053965;28;20421;-84
2022/03/24 00:41:06;;;;;;;27.37;15.87;;;7.90;99.90;;;;;;5054019;28;20441;-84
2022/03/24 00:43:32;;;;;;;27.30;15.30;;;7.80;99.90;;;;;;5054137;28;20420;-84
2022/03/24 00:45:59;;;;;;;26.87;16.97;;;7.80;99.90;;;;;;5053959;28;20461;-84
2022/03/24 00:48:25;;;;;;;30.37;16.13;;;7.80;99.90;;;;;;5053840;28;20439;-84
2022/03/24 00:50:51;;;;;;;35.20;17.40;;;7.80;99.90;;;;;;5053882;28;20486;-85
2022/03/24 00:53:17;;;;;;;27.63;16.10;;;7.70;99.90;;;;;;5054147;28;20413;-84
2022/03/24 00:55:43;;;;;;;26.83;15.97;;;7.70;99.90;;;;;;5054404;28;20413;-84
2022/03/24 00:58:10;;;;;;;26.33;15.60;;;7.70;99.90;;;;;;5056698;28;20651;-84
2022/03/24 01:00:37;;;;;;;25.60;15.67;;;7.60;99.90;;;;;;5058579;28;20447;-84
2022/03/24 01:03:07;;;;;;;30.23;16.27;;;7.60;99.90;;;;;;5058829;28;20419;-84
2022/03/24 01:05:37;;;;;;;24.60;15.23;;;7.60;99.90;;;;;;5058315;28;20438;-84
2022/03/24 01:08:05;;;;;;;24.33;14.27;;;7.60;99.90;;;;;;5058534;28;20431;-84
2022/03/24 01:10:31;;;;;;;25.63;14.57;;;7.50;99.90;;;;;;5058848;28;20501;-84
2022/03/24 01:12:59;;;;;;;26.27;15.83;;;7.50;99.90;;;;;;5058339;28;20412;-84
2022/03/24 01:15:26;;;;;;;27.37;16.10;;;7.50;99.90;;;;;;5058408;28;20421;-84
2022/03/24 01:17:52;;;;;;;26.57;16.03;;;7.40;99.90;;;;;;5058244;28;20424;-84
2022/03/24 01:20:19;;;;;;;25.57;15.10;;;7.40;99.90;;;;;;5058048;28;20447;-84
2022/03/24 01:22:45;;;;;;;27.93;15.53;;;7.40;99.90;;;;;;5058662;28;20462;-83
2022/03/24 01:25:11;;;;;;;29.90;17.23;;;7.30;99.90;;;;;;5058814;28;20822;-84
2022/03/24 01:27:40;;;;;;;26.87;16.00;;;7.30;99.90;;;;;;5058019;28;21060;-84
2022/03/24 01:30:10;;;;;;;32.60;16.50;;;7.30;99.90;;;;;;5048961;28;20468;-84
2022/03/24 01:32:36;;;;;;;30.20;15.93;;;7.30;99.90;;;;;;5055092;28;20415;-84
2022/03/24 01:35:07;;;;;;;29.73;15.53;;;7.20;99.90;;;;;;5055110;28;20442;-84
2022/03/24 01:37:35;;;;;;;24.30;14.00;;;7.20;99.90;;;;;;5054815;28;20417;-84
2022/03/24 01:40:01;;;;;;;26.33;13.57;;;7.20;99.90;;;;;;5054925;28;20872;-84
2022/03/24 01:42:27;;;;;;;30.93;16.50;;;7.20;99.90;;;;;;5054773;28;20440;-84
2022/03/24 01:44:55;;;;;;;32.10;15.80;;;7.20;99.90;;;;;;5054710;28;20421;-84
2022/03/24 01:47:22;;;;;;;28.80;16.60;;;7.10;99.90;;;;;;5054508;28;20300;-84
2022/03/24 01:49:48;;;;;;;27.80;15.30;;;7.00;99.90;;;;;;5055714;28;20419;-84
2022/03/24 01:52:17;;;;;;;25.97;16.20;;;7.00;99.90;;;;;;5054537;28;20794;-83
2022/03/24 01:54:45;;;;;;;26.77;15.33;;;6.90;99.90;;;;;;5054685;28;20417;-84
2022/03/24 01:57:12;;;;;;;31.73;14.87;;;6.90;99.90;;;;;;5054412;28;20451;-83
2022/03/24 01:59:40;;;;;;;29.03;16.80;;;6.90;99.90;;;;;;5054383;28;20905;-83
2022/03/24 02:02:07;;;;;;;25.77;14.73;;;6.90;99.90;;;;;;5054105;28;20451;-84
2022/03/24 02:04:35;;;;;;;26.37;14.73;;;6.90;99.90;;;;;;5054432;28;20419;-84
2022/03/24 02:07:05;;;;;;;35.57;16.20;;;6.80;99.90;;;;;;5053787;28;20460;-84
2022/03/24 02:09:32;;;;;;;25.40;15.33;;;6.70;99.90;;;;;;5053971;28;20944;-83
2022/03/24 02:11:58;;;;;;;28.37;15.67;;;6.80;99.90;;;;;;5054469;28;20442;-83
2022/03/24 02:14:24;;;;;;;27.23;14.33;;;6.70;99.90;;;;;;5054268;28;20436;-84
2022/03/24 02:16:50;;;;;;;26.97;15.37;;;6.70;99.90;;;;;;5054015;28;20436;-84
2022/03/24 02:19:24;;;;;;;27.57;16.03;;;6.70;99.90;;;;;;5053918;28;20189;-84
2022/03/24 02:21:52;;;;;;;28.57;15.10;;;6.70;99.90;;;;;;5053800;28;20446;-83
2022/03/24 02:24:20;;;;;;;28.60;16.50;;;6.70;99.90;;;;;;5053776;28;20486;-84
2022/03/24 02:26:47;;;;;;;29.50;17.93;;;6.70;99.90;;;;;;5053541;28;20553;-84
2022/03/24 02:29:15;;;;;;;27.43;14.37;;;6.70;99.90;;;;;;5054193;28;20427;-84
2022/03/24 02:31:44;;;;;;;24.40;14.70;;;6.70;99.90;;;;;;5054097;28;20430;-84
2022/03/24 02:36:57;;;;;;;37.50;16.83;;;6.50;99.90;;;;;;5055120;28;20407;-84
2022/03/24 02:39:23;;;;;;;27.00;15.10;;;6.40;99.90;;;;;;5053951;28;20425;-84
2022/03/24 02:41:54;;;;;;;21.20;14.47;;;6.40;99.90;;;;;;5053534;28;20883;-83
2022/03/24 02:44:30;;;;;;;26.87;15.07;;;6.40;99.90;;;;;;5053537;28;20503;-84
2022/03/24 02:46:57;;;;;;;29.23;16.20;;;6.40;99.90;;;;;;5053318;28;20451;-83
2022/03/24 02:49:25;;;;;;;26.23;15.57;;;6.40;99.90;;;;;;5053241;28;20796;-84
2022/03/24 02:51:52;;;;;;;27.27;14.57;;;6.30;99.90;;;;;;5053107;28;20492;-84
2022/03/24 02:54:19;;;;;;;25.07;14.17;;;6.30;99.90;;;;;;5053477;28;20465;-84
2022/03/24 02:56:45;;;;;;;27.43;14.97;;;6.30;99.90;;;;;;5053054;28;20431;-84
2022/03/24 02:59:12;;;;;;;26.67;15.10;;;6.20;99.90;;;;;;5053161;28;20415;-84
2022/03/24 03:01:45;;;;;;;22.43;14.30;;;6.10;99.90;;;;;;5052828;28;20473;-83
2022/03/24 03:04:12;;;;;;;27.53;15.77;;;6.20;99.90;;;;;;5053229;28;20398;-84
2022/03/24 03:06:38;;;;;;;31.03;15.43;;;6.10;99.90;;;;;;5052440;28;20462;-84
2022/03/24 03:09:05;;;;;;;25.70;14.73;;;6.00;99.90;;;;;;5052741;28;20418;-84
2022/03/24 03:11:31;;;;;;;25.83;14.43;;;6.00;99.90;;;;;;5052563;28;20448;-83
2022/03/24 03:13:58;;;;;;;24.43;12.97;;;6.00;99.90;;;;;;5052542;28;20421;-83
2022/03/24 03:16:24;;;;;;;26.60;14.20;;;6.00;99.90;;;;;;5052365;28;20439;-84
2022/03/24 03:18:50;;;;;;;23.37;13.50;;;6.00;99.90;;;;;;5052421;28;20426;-84
2022/03/24 03:21:17;;;;;;;28.53;14.33;;;5.90;99.90;;;;;;5051621;28;20521;-83
2022/03/24 03:23:44;;;;;;;28.20;16.50;;;5.90;99.90;;;;;;5052304;28;20469;-83
2022/03/24 03:26:17;;;;;;;26.70;16.03;;;5.90;99.90;;;;;;5052108;28;20454;-84
2022/03/24 03:28:44;;;;;;;28.30;14.43;;;5.90;99.90;;;;;;5051934;28;20416;-83
2022/03/24 03:31:10;;;;;;;26.90;16.60;;;5.90;99.90;;;;;;5051850;28;20537;-84
2022/03/24 03:33:36;;;;;;;23.90;13.80;;;5.90;99.90;;;;;;5051937;28;20503;-83
2022/03/24 03:36:03;;;;;;;25.43;14.80;;;5.90;99.90;;;;;;5051644;28;20418;-84
2022/03/24 03:38:30;;;;;;;23.90;13.73;;;5.90;99.90;;;;;;5051615;28;20431;-83
2022/03/24 03:40:56;;;;;;;23.67;14.17;;;5.90;99.90;;;;;;5052034;28;20854;-84
2022/03/24 03:43:23;;;;;;;25.20;13.30;;;5.90;99.90;;;;;;5051610;28;20503;-83
2022/03/24 03:45:49;;;;;;;24.93;14.13;;;5.90;99.90;;;;;;5051619;28;20427;-84
2022/03/24 03:48:15;;;;;;;24.53;13.23;;;5.90;99.90;;;;;;5051915;28;20480;-84
2022/03/24 03:50:43;;;;;;;26.80;13.20;;;5.90;99.90;;;;;;5052293;28;20433;-84
2022/03/24 03:53:10;;;;;;;23.40;14.27;;;5.80;99.90;;;;;;5052123;28;20426;-83
2022/03/24 03:55:37;;;;;;;23.80;13.27;;;5.80;99.90;;;;;;5052534;28;20498;-83
2022/03/24 03:58:06;;;;;;;25.40;13.07;;;5.70;99.90;;;;;;5051888;28;20465;-84
2022/03/24 04:00:52;;;;;;;22.70;13.50;;;5.70;99.90;;;;;;5052331;28;20434;-84
2022/03/24 04:03:19;;;;;;;21.37;13.73;;;5.60;99.90;;;;;;5052384;28;20782;-84
2022/03/24 04:05:44;;;;;;;24.37;13.27;;;5.70;99.90;;;;;;5052053;28;20425;-84
2022/03/24 04:08:13;;;;;;;23.63;13.33;;;5.70;99.90;;;;;;5035326;28;20479;-84
2022/03/24 04:10:39;;;;;;;23.00;14.10;;;5.70;99.90;;;;;;5051921;28;20443;-84
2022/03/24 04:13:08;;;;;;;25.40;13.53;;;5.60;99.90;;;;;;5051721;28;20425;-83
2022/03/24 04:15:34;;;;;;;27.03;14.17;;;5.60;99.90;;;;;;5051514;28;20457;-84
2022/03/24 04:18:03;;;;;;;27.40;14.70;;;5.60;99.90;;;;;;5051831;28;20470;-84
2022/03/24 04:20:29;;;;;;;20.53;12.60;;;5.40;99.90;;;;;;5053028;28;20456;-84
2022/03/24 04:22:59;;;;;;;32.53;14.40;;;5.30;99.90;;;;;;5051857;28;20426;-84
2022/03/24 04:25:26;;;;;;;25.50;13.30;;;5.40;99.90;;;;;;5051623;28;20931;-84
2022/03/24 04:27:52;;;;;;;25.63;13.57;;;5.30;99.90;;;;;;5051541;28;20569;-84
2022/03/24 04:30:21;;;;;;;24.63;13.40;;;5.30;99.90;;;;;;5051494;28;21002;-83
2022/03/24 04:32:48;;;;;;;26.83;14.70;;;5.20;99.90;;;;;;5051626;28;20952;-83
2022/03/24 04:35:15;;;;;;;21.77;12.93;;;5.20;99.90;;;;;;5051541;28;20454;-84
2022/03/24 04:37:41;;;;;;;24.87;13.37;;;5.00;99.90;;;;;;5051626;28;20425;-84
2022/03/24 04:40:08;;;;;;;29.03;14.30;;;5.00;99.90;;;;;;5052052;28;21031;-84
2022/03/24 04:42:34;;;;;;;26.67;13.53;;;5.10;99.90;;;;;;5051788;28;20434;-84
2022/03/24 04:45:00;;;;;;;24.30;14.70;;;5.00;99.90;;;;;;5051732;28;20414;-83
2022/03/24 04:47:26;;;;;;;25.20;14.33;;;5.00;99.90;;;;;;5051335;28;20476;-84
2022/03/24 04:49:52;;;;;;;23.13;13.33;;;5.00;99.90;;;;;;5051556;28;20564;-84
2022/03/24 04:52:19;;;;;;;25.23;13.17;;;5.00;99.90;;;;;;5051715;28;20422;-83
2022/03/24 04:54:45;;;;;;;22.10;13.00;;;5.00;99.90;;;;;;5051532;28;20926;-84
2022/03/24 04:57:12;;;;;;;23.57;13.20;;;5.00;99.90;;;;;;5051097;28;20440;-84
2022/03/24 04:59:38;;;;;;;26.77;13.73;;;5.00;99.90;;;;;;5051468;28;20436;-84
2022/03/24 05:02:04;;;;;;;25.07;13.20;;;5.00;99.90;;;;;;5051440;28;20446;-83
2022/03/24 05:04:29;;;;;;;24.67;14.17;;;5.00;99.90;;;;;;5051230;28;20632;-84
2022/03/24 05:06:55;;;;;;;26.50;13.73;;;4.90;99.90;;;;;;5051056;28;20484;-83
2022/03/24 05:09:21;;;;;;;33.53;13.23;;;4.90;99.90;;;;;;5051373;28;20229;-83
2022/03/24 05:11:46;;;;;;;26.40;14.93;;;4.80;99.90;;;;;;5051363;28;20291;-84
2022/03/24 05:14:12;;;;;;;23.13;13.47;;;4.80;99.90;;;;;;5051350;28;20560;-84
2022/03/24 05:16:38;;;;;;;25.97;12.73;;;4.90;99.90;;;;;;5051109;28;20196;-84
2022/03/24 05:19:04;;;;;;;24.37;13.43;;;4.90;99.90;;;;;;5051242;28;20562;-84
2022/03/24 05:21:33;;;;;;;20.43;13.07;;;4.90;99.90;;;;;;5052342;28;20477;-84
2022/03/24 05:24:00;;;;;;;22.40;13.53;;;4.80;99.90;;;;;;5051003;28;20835;-84
2022/03/24 05:26:26;;;;;;;23.47;12.50;;;4.80;99.90;;;;;;5109975;22;20517;-82
2022/03/24 05:28:55;;;;;;;22.87;13.40;;;4.80;99.90;;;;;;5084932;28;20832;-82
2022/03/24 05:31:21;;;;;;;26.87;14.13;;;4.90;99.90;;;;;;5090328;28;20438;-82
2022/03/24 05:33:47;;;;;;;21.20;13.30;;;4.80;99.90;;;;;;5090432;28;20411;-82
2022/03/24 05:36:13;;;;;;;23.63;13.80;;;4.80;99.90;;;;;;5090171;28;20942;-82
2022/03/24 05:38:39;;;;;;;25.10;13.27;;;4.80;99.90;;;;;;5090212;28;20407;-82
2022/03/24 05:41:05;;;;;;;24.20;14.27;;;4.80;99.90;;;;;;5084354;28;20433;-82
2022/03/24 05:43:31;;;;;;;19.50;12.50;;;4.80;99.90;;;;;;5074576;28;20175;-82
2022/03/24 05:45:57;;;;;;;25.40;13.57;;;4.80;99.90;;;;;;5093711;28;20415;-82
2022/03/24 05:48:24;;;;;;;24.03;13.97;;;4.80;99.90;;;;;;5093415;28;20467;-82
2022/03/24 05:50:49;;;;;;;30.03;15.40;;;4.90;99.90;;;;;;5093910;28;20191;-82
2022/03/24 05:53:15;;;;;;;24.73;13.57;;;4.80;99.90;;;;;;5093870;28;20420;-83
2022/03/24 05:55:41;;;;;;;23.87;13.57;;;4.80;99.90;;;;;;5093866;28;21188;-82
2022/03/24 05:58:07;;;;;;;23.00;12.30;;;4.80;99.90;;;;;;5093534;28;20186;-82
2022/03/24 06:00:37;;;;;;;23.63;12.60;;;4.90;99.90;;;;;;5093807;28;20446;-82
2022/03/24 06:03:06;;;;;;;31.30;14.93;;;5.00;99.90;;;;;;5093574;28;20456;-82
2022/03/24 06:05:32;;;;;;;24.10;14.67;;;5.00;99.90;;;;;;5093620;28;20419;-82
2022/03/24 06:08:01;;;;;;;28.63;15.40;;;5.10;99.90;;;;;;5093140;28;20456;-83
2022/03/24 06:10:27;;;;;;;19.40;12.97;;;5.20;99.90;;;;;;5093538;28;20194;-83
2022/03/24 06:12:53;;;;;;;26.53;13.97;;;5.20;99.90;;;;;;5093447;28;20418;-82
2022/03/24 06:15:19;;;;;;;23.33;14.27;;;5.30;99.90;;;;;;5093624;28;20523;-83
2022/03/24 06:17:46;;;;;;;26.77;14.97;;;5.30;99.90;;;;;;5093608;28;20211;-83
2022/03/24 06:20:13;;;;;;;26.20;14.57;;;5.40;99.90;;;;;;5095125;28;20474;-83
2022/03/24 06:22:50;;;;;;;22.73;14.57;;;5.50;99.90;;;;;;5093419;28;20417;-83
2022/03/24 06:25:16;;;;;;;31.50;15.60;;;5.50;99.90;;;;;;5093099;28;20412;-82
2022/03/24 06:27:42;;;;;;;30.40;14.90;;;5.50;99.90;;;;;;5093024;28;20684;-82
2022/03/24 06:30:08;;;;;;;22.70;14.00;;;5.50;99.90;;;;;;5093264;28;20489;-82
2022/03/24 06:32:34;;;;;;;22.07;12.13;;;5.60;99.90;;;;;;5093171;28;20185;-82
2022/03/24 06:35:02;;;;;;;21.70;13.53;;;5.70;99.90;;;;;;5093264;28;20420;-82
2022/03/24 06:37:28;;;;;;;27.43;13.97;;;5.80;99.90;;;;;;5092934;28;20861;-82
2022/03/24 06:39:54;;;;;;;24.67;14.63;;;6.00;99.90;;;;;;5094485;28;20496;-82
2022/03/24 06:42:21;;;;;;;25.77;14.03;;;6.10;99.90;;;;;;5092981;28;20214;-82
2022/03/24 06:44:47;;;;;;;27.57;14.57;;;6.10;99.90;;;;;;5093140;28;20634;-83
2022/03/24 06:47:12;;;;;;;22.50;14.20;;;6.30;99.90;;;;;;5092484;28;20519;-83
2022/03/24 06:49:38;;;;;;;24.30;14.37;;;6.40;99.90;;;;;;5092968;28;20181;-82
2022/03/24 06:52:04;;;;;;;25.53;13.80;;;6.40;99.90;;;;;;5092669;28;20202;-82
2022/03/24 06:54:30;;;;;;;26.30;12.80;;;6.50;99.90;;;;;;5092104;28;20175;-82
2022/03/24 06:56:55;;;;;;;29.03;15.77;;;6.70;99.90;;;;;;5091828;28;20494;-82
2022/03/24 06:59:21;;;;;;;24.70;15.60;;;6.80;99.90;;;;;;5092838;28;20265;-82
2022/03/24 07:01:48;;;;;;;26.50;14.83;;;6.90;99.90;;;;;;5092579;28;20223;-82
2022/03/24 07:04:13;;;;;;;28.53;15.90;;;7.00;99.90;;;;;;5092640;28;20232;-82
2022/03/24 07:06:40;;;;;;;27.13;15.40;;;7.10;99.90;;;;;;5092194;28;20984;-82
2022/03/24 07:09:05;;;;;;;25.40;14.50;;;7.20;99.90;;;;;;5092557;28;20182;-82
2022/03/24 07:11:32;;;;;;;26.83;15.17;;;7.40;99.90;;;;;;5092490;28;20440;-82
2022/03/24 07:13:57;;;;;;;26.43;15.80;;;7.50;99.90;;;;;;5092495;28;20585;-82
2022/03/24 07:16:23;;;;;;;29.37;15.33;;;7.60;99.90;;;;;;5092200;28;20474;-82
2022/03/24 07:18:49;;;;;;;28.57;15.43;;;7.80;99.90;;;;;;5092198;28;20199;-82
2022/03/24 07:21:14;;;;;;;25.17;14.67;;;7.90;99.90;;;;;;5092259;28;20205;-82
2022/03/24 07:23:40;;;;;;;31.70;17.20;;;8.00;99.90;;;;;;5092151;28;20206;-82
2022/03/24 07:26:06;;;;;;;28.33;16.10;;;8.10;99.90;;;;;;5092049;28;20201;-82
2022/03/24 07:28:32;;;;;;;25.70;16.27;;;8.20;99.90;;;;;;5091860;28;20793;-82
2022/03/24 07:30:57;;;;;;;27.30;16.13;;;8.40;99.90;;;;;;5091953;28;20281;-82
2022/03/24 07:33:23;;;;;;;27.30;15.43;;;8.50;99.90;;;;;;5092044;28;20174;-82
2022/03/24 07:35:49;;;;;;;29.90;16.43;;;8.60;99.90;;;;;;5091843;28;20178;-82
2022/03/24 07:38:15;;;;;;;28.00;15.33;;;8.70;99.90;;;;;;5091733;28;20177;-82
2022/03/24 07:40:41;;;;;;;29.30;16.00;;;8.80;99.90;;;;;;5091738;28;20198;-82
2022/03/24 07:43:08;;;;;;;28.83;16.10;;;8.80;99.90;;;;;;5091862;28;20424;-82
2022/03/24 07:45:38;;;;;;;29.80;15.80;;;9.00;99.90;;;;;;5091630;28;20188;-82
2022/03/24 07:48:12;;;;;;;25.17;15.67;;;9.20;99.90;;;;;;5091431;28;20464;-82
2022/03/24 07:50:43;;;;;;;26.70;16.40;;;9.40;99.90;;;;;;5091811;28;20442;-82
2022/03/24 07:53:12;;;;;;;27.10;15.77;;;9.50;99.90;;;;;;5091980;28;20819;-82
2022/03/24 07:55:42;;;;;;;29.70;17.97;;;9.60;99.90;;;;;;5091308;28;20420;-83
2022/03/24 07:58:09;;;;;;;27.60;16.97;;;9.70;99.90;;;;;;5091278;28;20444;-82
2022/03/24 08:00:35;;;;;;;28.13;16.43;;;9.90;99.90;;;;;;5091663;28;20447;-83
2022/03/24 08:03:00;;;;;;;28.03;17.17;;;9.90;99.90;;;;;;5092927;28;20504;-82
2022/03/24 08:05:26;;;;;;;29.73;17.57;;;10.10;99.90;;;;;;5091737;28;20547;-82
2022/03/24 08:07:56;;;;;;;30.70;16.87;;;10.30;99.90;;;;;;5090909;28;20210;-82
2022/03/24 08:10:22;;;;;;;33.17;18.17;;;10.30;99.90;;;;;;5091492;28;20523;-82
2022/03/24 08:12:48;;;;;;;30.97;17.23;;;10.50;99.90;;;;;;5091438;28;20470;-83
2022/03/24 08:15:14;;;;;;;31.30;15.03;;;10.60;99.90;;;;;;5091245;28;20423;-83
2022/03/24 08:17:40;;;;;;;29.00;18.07;;;10.80;99.90;;;;;;5091054;28;20578;-83
2022/03/24 08:20:06;;;;;;;32.80;18.53;;;11.00;99.90;;;;;;5091335;28;20556;-83
2022/03/24 08:22:32;;;;;;;27.37;16.10;;;11.10;99.90;;;;;;5091158;28;20192;-83
2022/03/24 08:24:58;;;;;;;31.47;18.57;;;11.30;99.90;;;;;;5091293;28;20421;-83
2022/03/24 08:27:24;;;;;;;25.77;17.67;;;11.40;99.90;;;;;;5090678;28;20525;-83
2022/03/24 08:29:50;;;;;;;30.40;18.17;;;11.60;99.90;;;;;;5090986;28;20178;-83
2022/03/24 08:32:16;;;;;;;31.03;17.23;;;11.80;99.90;;;;;;5091248;28;20174;-83
2022/03/24 08:34:42;;;;;;;35.87;19.80;;;11.90;99.90;;;;;;5090966;28;20469;-83
2022/03/24 08:37:07;;;;;;;30.30;18.90;;;11.90;99.90;;;;;;5090826;28;20174;-82
2022/03/24 08:39:33;;;;;;;33.03;19.57;;;12.10;99.90;;;;;;5090922;28;20654;-83
2022/03/24 08:41:59;;;;;;;28.37;16.90;;;12.20;99.90;;;;;;5090899;28;20205;-83
2022/03/24 08:44:25;;;;;;;33.17;18.20;;;12.30;99.90;;;;;;5090893;28;20419;-83
2022/03/24 08:46:51;;;;;;;28.13;18.77;;;12.40;99.90;;;;;;5090692;28;20492;-83
2022/03/24 08:49:18;;;;;;;34.93;19.57;;;12.60;99.90;;;;;;5078795;28;20472;-83
2022/03/24 08:51:45;;;;;;;29.07;16.80;;;12.70;99.90;;;;;;5084446;28;20454;-83
2022/03/24 08:54:10;;;;;;;34.00;19.70;;;12.90;99.90;;;;;;5083958;28;20428;-83
2022/03/24 08:56:36;;;;;;;33.57;20.50;;;13.00;99.90;;;;;;5077358;28;20425;-82
2022/03/24 08:59:04;;;;;;;31.33;17.87;;;13.20;99.90;;;;;;5081963;28;20452;-83
2022/03/24 09:01:30;;;;;;;31.40;20.00;;;13.30;99.90;;;;;;5090495;28;20440;-82
2022/03/24 09:03:56;;;;;;;32.80;19.07;;;13.50;99.90;;;;;;5090800;28;20425;-83
2022/03/24 09:06:22;;;;;;;31.63;19.60;;;13.60;99.90;;;;;;5082659;28;20548;-83
2022/03/24 09:08:48;;;;;;;31.33;18.10;;;13.90;99.90;;;;;;5070037;28;20187;-83
2022/03/24 09:11:14;;;;;;;30.57;19.40;;;14.00;99.90;;;;;;5071856;28;20883;-83
2022/03/24 09:13:40;;;;;;;30.00;19.60;;;14.10;99.90;;;;;;5082201;28;20182;-82
2022/03/24 09:16:06;;;;;;;30.37;19.97;;;14.30;99.90;;;;;;5090223;28;20485;-83
2022/03/24 09:18:33;;;;;;;34.67;19.67;;;14.40;99.90;;;;;;5081120;28;20560;-83
2022/03/24 09:20:59;;;;;;;32.20;18.90;;;14.60;99.90;;;;;;5073756;28;20782;-83
2022/03/24 09:23:26;;;;;;;31.03;18.93;;;14.60;99.90;;;;;;5074020;28;20436;-83
2022/03/24 09:25:54;;;;;;;33.20;19.83;;;14.70;99.90;;;;;;5073837;28;20191;-83
2022/03/24 09:28:20;;;;;;;31.33;19.00;;;14.90;99.90;;;;;;5073771;28;20431;-83
2022/03/24 09:30:45;;;;;;;32.73;19.87;;;15.10;99.90;;;;;;5073964;28;20437;-83
2022/03/24 09:33:12;;;;;;;37.37;21.37;;;15.10;99.90;;;;;;5074324;28;20858;-83
2022/03/24 09:35:38;;;;;;;31.30;21.80;;;15.40;99.90;;;;;;5073442;28;20190;-82
2022/03/24 09:38:04;;;;;;;31.63;20.70;;;16.30;99.90;;;;;;5073383;28;20424;-83
2022/03/24 09:40:30;;;;;;;32.83;20.07;;;18.40;99.90;;;;;;5073530;28;20248;-83
2022/03/24 09:42:58;;;;;;;35.07;20.30;;;19.70;97.90;;;;;;5073604;28;20432;-83
2022/03/24 09:45:25;;;;;;;33.00;21.10;;;21.40;88.80;;;;;;5073474;28;20425;-83
2022/03/24 09:47:50;;;;;;;33.20;20.60;;;23.10;75.50;;;;;;5073562;28;20547;-83
2022/03/24 09:50:18;;;;;;;30.90;20.03;;;25.30;62.30;;;;;;5073032;28;20944;-84
2022/03/24 09:52:44;;;;;;;30.87;20.90;;;27.40;55.50;;;;;;5083381;28;20186;-85
2022/03/24 09:55:10;;;;;;;25.43;19.80;;;28.30;46.20;;;;;;5094598;28;20415;-85
2022/03/24 09:57:37;;;;;;;29.53;20.50;;;29.70;44.70;;;;;;5072417;28;20448;-85
2022/03/24 10:00:05;;;;;;;30.53;20.80;;;31.10;41.00;;;;;;5073425;28;20466;-85
2022/03/24 10:02:31;;;;;;;24.87;19.67;;;32.20;38.30;;;;;;5073601;28;20482;-86
2022/03/24 10:05:03;;;;;;;27.50;20.50;;;33.40;36.30;;;;;;5073594;28;20429;-86
2022/03/24 10:07:33;;;;;;;31.47;21.27;;;34.40;34.00;;;;;;5073175;28;20234;-86
2022/03/24 10:10:01;;;;;;;25.97;20.13;;;35.10;31.90;;;;;;5087937;28;20843;-88
2022/03/24 10:12:33;;;;;;;26.90;20.20;;;36.10;29.90;;;;;;5093564;28;20424;-85
2022/03/24 10:15:05;;;;;;;23.27;19.90;;;36.50;27.40;;;;;;5093636;28;20420;-85
2022/03/24 10:17:32;;;;;;;24.40;19.70;;;36.30;26.20;;;;;;5093256;28;20507;-86
2022/03/24 10:20:08;;;;;;;22.30;17.47;;;35.90;25.50;;;;;;5093381;28;20408;-86
2022/03/24 10:22:35;;;;;;;27.70;19.47;;;36.70;26.20;;;;;;5093605;28;20420;-86
2022/03/24 10:25:05;;;;;;;24.17;19.90;;;36.70;25.20;;;;;;5093281;28;20458;-86
2022/03/24 10:27:31;;;;;;;26.47;18.87;;;36.80;25.50;;;;;;5093150;28;20467;-86
2022/03/24 10:29:58;;;;;;;23.23;19.67;;;36.60;25.30;;;;;;5093167;28;20485;-86
2022/03/24 10:32:30;;;;;;;26.80;20.17;;;37.70;25.30;;;;;;5092995;28;20655;-86
2022/03/24 10:34:58;;;;;;;24.43;19.00;;;;;;;;;;5093076;28;20446;-86
2022/03/24 10:37:26;;;;;;;27.30;21.07;;;37.90;23.40;;;;;;5092546;28;20551;-85
2022/03/24 10:39:57;;;;;;;24.43;19.20;;;37.90;23.90;;;;;;5093158;28;20467;-85
2022/03/24 10:42:27;;;;;;;24.70;19.90;;;38.40;24.00;;;;;;5092896;28;20413;-86
2022/03/24 10:45:12;;;;;;;23.83;18.47;;;37.70;23.90;;;;;;5092755;28;20503;-86
2022/03/24 10:47:40;;;;;;;24.97;19.67;;;38.10;24.10;;;;;;5092467;28;20412;-85
2022/03/24 10:50:30;;;;;;;26.47;19.33;;;38.00;23.70;;;;;;5092727;28;20427;-86
2022/03/24 10:53:16;;;;;;;25.43;19.23;;;37.10;24.40;;;;;;5087677;28;20938;-86
2022/03/24 10:55:49;;;;;;;24.60;20.47;;;36.90;23.90;;;;;;5089336;28;20460;-86
2022/03/24 10:58:24;;;;;;;25.20;19.30;;;37.70;23.80;;;;;;5089211;28;20506;-86
2022/03/24 11:00:52;;;;;;;27.40;20.57;;;38.50;23.50;;;;;;5089159;28;20437;-87
2022/03/24 11:03:19;;;;;;;24.00;19.90;;;38.40;22.90;;;;;;5089499;28;20830;-87
2022/03/24 11:05:45;;;;;;;25.67;19.83;;;36.40;23.10;;;;;;5089468;28;20418;-86
2022/03/24 11:08:17;;;;;;;21.40;18.10;;;35.90;23.00;;;;;;5089194;28;20946;-86
2022/03/24 11:10:47;;;;;;;20.87;17.83;;;36.30;24.20;;;;;;5088891;28;20199;-86
2022/03/24 11:13:29;;;;;;;24.93;18.50;;;36.60;23.40;;;;;;5089453;28;20783;-87
2022/03/24 11:15:54;;;;;;;23.07;19.07;;;36.70;23.10;;;;;;5088747;28;20437;-86
2022/03/24 11:18:23;;;;;;;24.13;18.93;;;36.40;23.00;;;;;;5089043;28;20477;-87
2022/03/24 11:20:50;;;;;;;19.53;15.57;;;36.60;22.90;;;;;;5088732;28;20230;-86
2022/03/24 11:23:24;;;;;;;21.27;18.00;;;37.80;23.10;;;;;;5088580;28;20906;-87
2022/03/24 11:25:56;;;;;;;20.17;17.20;;;37.50;22.50;;;;;;5088430;28;20432;-86
2022/03/24 11:28:23;;;;;;;18.90;15.00;;;37.20;22.60;;;;;;5088843;28;20780;-86
2022/03/24 11:30:48;;;;;;;13.77;11.37;;;35.40;22.30;;;;;;5088590;28;20452;-86
2022/03/24 11:33:16;;;;;;;17.73;14.30;;;34.60;20.70;;;;;;5088686;28;20421;-86
2022/03/24 11:35:43;;;;;;;16.83;13.23;;;34.30;21.50;;;;;;5088451;28;20193;-86
2022/03/24 11:38:09;;;;;;;16.33;12.37;;;33.70;22.00;;;;;;5088748;28;20911;-86
2022/03/24 11:40:36;;;;;;;14.17;11.43;;;33.50;22.30;;;;;;5088301;28;20433;-86
2022/03/24 11:43:14;;;;;;;14.13;11.00;;;33.40;22.40;;;;;;5088133;28;20479;-86
2022/03/24 11:45:39;;;;;;;15.57;12.23;;;34.10;22.20;;;;;;5088304;28;20469;-86
2022/03/24 11:48:10;;;;;;;16.83;12.90;;;35.40;22.20;;;;;;5088085;28;20496;-86
2022/03/24 11:50:45;;;;;;;18.00;14.30;;;37.80;21.50;;;;;;5088255;28;20203;-86
2022/03/24 11:53:31;;;;;;;16.17;13.90;;;38.10;21.90;;;;;;5087398;28;20778;-86
2022/03/24 11:55:59;;;;;;;17.20;11.77;;;39.00;20.70;;;;;;5071193;28;20503;-86
2022/03/24 11:58:34;;;;;;;11.93;8.80;;;38.70;20.20;;;;;;5071078;28;20453;-86
2022/03/24 12:01:32;;;;;;;12.60;9.37;;;39.10;19.80;;;;;;5070785;28;20439;-86
2022/03/24 12:04:06;;;;;;;11.97;9.50;;;37.90;19.50;;;;;;5056232;28;20464;-87
2022/03/24 12:06:43;;;;;;;9.37;6.60;;;36.90;19.90;;;;;;5082890;28;20465;-87
2022/03/24 12:09:11;;;;;;;12.20;9.40;;;36.20;19.30;;;;;;5082949;28;20487;-87
2022/03/24 12:11:42;;;;;;;11.70;8.50;;;34.50;19.00;;;;;;5091212;28;20436;-87
2022/03/24 12:14:19;;;;;;;14.87;9.80;;;33.00;19.70;;;;;;5091731;28;20494;-86
2022/03/24 12:16:47;;;;;;;12.77;9.63;;;;;;;;;;5078571;22;20842;-64
2022/03/24 12:19:38;;;;;;;15.93;11.57;;;31.40;20.40;;;;;;5051486;28;20970;-64
2022/03/24 12:22:26;;;;;;;15.63;10.67;;;30.00;22.40;;;;;;5053775;28;20424;-64
2022/03/24 12:24:58;;;;;;;15.53;10.90;;;30.60;24.80;;;;;;5048547;28;20464;-64
2022/03/24 12:27:24;;;;;;;16.00;11.60;;;31.20;23.00;;;;;;5053699;28;20433;-64
2022/03/24 12:30:24;;;;;;;14.80;11.40;;;31.00;22.40;;;;;;5053989;28;20419;-63
2022/03/24 12:33:06;;;;;;;15.80;11.80;;;31.30;23.90;;;;;;4991168;28;20567;-63
2022/03/24 12:35:51;;;;;;;16.93;11.93;;;32.10;23.00;;;;;;5053972;28;20432;-65
2022/03/24 12:38:29;;;;;;;16.83;11.00;;;33.30;22.50;;;;;;5053475;28;20559;-63
2022/03/24 12:41:04;;;;;;;15.70;11.97;;;35.40;22.60;;;;;;5053908;28;20418;-63